createdAt,value
2023-04-22T00:01:39.475Z,4.28
2023-04-22T00:04:46.716Z,3.67
2023-04-22T00:07:55.880Z,3.55
2023-04-22T00:11:01.462Z,3.72
2023-04-22T00:14:09.996Z,3.28
2023-04-22T00:17:18.240Z,3.60
2023-04-22T00:20:24.643Z,3.40
2023-04-22T00:23:29.611Z,3.05
2023-04-22T00:26:35.132Z,3.08
2023-04-22T00:29:45.140Z,3.30
2023-04-22T00:32:51.931Z,3.30
2023-04-22T00:35:57.063Z,3.15
2023-04-22T00:39:03.436Z,3.53
2023-04-22T00:42:09.295Z,3.58
2023-04-22T00:45:20.370Z,3.55
2023-04-22T00:48:27.523Z,3.28
2023-04-22T00:51:34.153Z,3.72
2023-04-22T00:54:39.560Z,3.80
2023-04-22T00:57:45.576Z,3.75
2023-04-22T01:00:53.720Z,3.72
2023-04-22T01:04:02.505Z,3.60
2023-04-22T01:07:07.736Z,3.45
2023-04-22T01:10:13.432Z,3.30
2023-04-22T01:13:19.438Z,2.95
2023-04-22T01:16:29.642Z,3.13
2023-04-22T01:19:35.042Z,3.45
2023-04-22T01:22:46.450Z,3.38
2023-04-22T01:25:54.926Z,2.97
2023-04-22T01:29:00.681Z,3.20
2023-04-22T01:32:06.333Z,3.10
2023-04-22T01:35:13.376Z,2.85
2023-04-22T01:38:18.647Z,3.08
2023-04-22T01:41:27.382Z,3.40
2023-04-22T01:44:32.554Z,3.08
2023-04-22T01:47:38.873Z,3.40
2023-04-22T01:50:44.277Z,3.33
2023-04-22T01:53:50.434Z,3.03
2023-04-22T01:57:02.990Z,3.15
2023-04-22T02:00:12.131Z,3.10
2023-04-22T02:03:19.926Z,2.97
2023-04-22T02:06:32.128Z,3.13
2023-04-22T02:09:37.657Z,3.45
2023-04-22T02:12:48.410Z,2.80
2023-04-22T02:15:53.498Z,3.15
2023-04-22T02:19:02.048Z,2.28
2023-04-22T02:22:07.780Z,2.97
2023-04-22T02:25:15.934Z,3.13
2023-04-22T02:28:28.978Z,2.75
2023-04-22T02:31:34.534Z,2.80
2023-04-22T02:34:39.972Z,2.53
2023-04-22T02:37:45.501Z,2.53
2023-04-22T02:40:52.834Z,2.30
2023-04-22T02:44:02.581Z,2.60
2023-04-22T02:47:08.019Z,2.33
2023-04-22T02:50:13.953Z,2.55
2023-04-22T02:53:19.015Z,2.60
2023-04-22T02:56:24.830Z,4.07
2023-04-22T02:59:32.528Z,2.45
2023-04-22T03:02:39.098Z,2.50
2023-04-22T03:05:45.548Z,2.95
2023-04-22T03:08:51.193Z,2.83
2023-04-22T03:11:56.188Z,2.80
2023-04-22T03:15:04.193Z,3.30
2023-04-22T03:18:16.554Z,3.47
2023-04-22T03:21:22.330Z,3.13
2023-04-22T03:24:28.808Z,3.28
2023-04-22T03:27:35.672Z,3.33
2023-04-22T03:30:44.079Z,3.03
2023-04-22T03:33:49.991Z,3.10
2023-04-22T03:36:54.968Z,3.25
2023-04-22T03:40:01.547Z,3.55
2023-04-22T03:43:06.625Z,3.08
2023-04-22T03:46:14.760Z,3.05
2023-04-22T03:49:19.893Z,2.50
2023-04-22T03:52:26.192Z,2.88
2023-04-22T03:55:33.933Z,2.83
2023-04-22T03:58:41.104Z,2.70
2023-04-22T04:01:49.024Z,2.85
2023-04-22T04:04:54.640Z,3.00
2023-04-22T04:08:00.197Z,3.47
2023-04-22T04:11:07.876Z,2.70
2023-04-22T04:14:13.160Z,3.05
2023-04-22T04:17:28.710Z,3.08
2023-04-22T04:20:33.781Z,2.85
2023-04-22T04:23:39.165Z,2.83
2023-04-22T04:26:44.188Z,2.40
2023-04-22T04:29:52.818Z,2.20
2023-04-22T04:33:07.312Z,2.60
2023-04-22T04:36:13.057Z,2.30
2023-04-22T04:39:19.234Z,2.80
2023-04-22T04:42:25.858Z,2.53
2023-04-22T04:45:31.207Z,2.40
2023-04-22T04:48:39.682Z,2.08
2023-04-22T04:51:49.067Z,2.80
2023-04-22T04:54:54.419Z,3.10
2023-04-22T04:58:01.489Z,3.22
2023-04-22T05:01:16.028Z,2.83
2023-04-22T05:04:24.627Z,3.10
2023-04-22T05:07:30.482Z,4.00
2023-04-22T05:10:36.704Z,3.72
2023-04-22T05:13:42.111Z,4.38
2023-04-22T05:16:50.045Z,4.53
2023-04-22T05:19:58.079Z,4.65
2023-04-22T05:23:03.140Z,4.28
2023-04-22T05:26:08.478Z,4.45
2023-04-22T05:29:13.486Z,4.25
2023-04-22T05:32:21.499Z,3.80
2023-04-22T05:35:29.192Z,4.00
2023-04-22T05:38:34.509Z,3.95
2023-04-22T05:41:39.479Z,4.10
2023-04-22T05:44:45.030Z,3.90
2023-04-22T05:47:50.135Z,3.80
2023-04-22T05:50:58.240Z,3.80
2023-04-22T05:54:03.315Z,4.53
2023-04-22T05:57:08.672Z,4.03
2023-04-22T06:00:14.452Z,4.57
2023-04-22T06:03:21.296Z,3.10
2023-04-22T06:06:29.182Z,3.38
2023-04-22T06:09:34.530Z,3.60
2023-04-22T06:12:39.815Z,3.85
2023-04-22T06:15:45.242Z,3.63
2023-04-22T06:18:52.597Z,3.25
2023-04-22T06:22:00.539Z,3.50
2023-04-22T06:25:05.530Z,3.38
2023-04-22T06:28:12.467Z,2.80
2023-04-22T06:31:18.956Z,3.50
2023-04-22T06:34:26.135Z,3.15
2023-04-22T06:37:33.814Z,2.90
2023-04-22T06:40:39.263Z,2.70
2023-04-22T06:43:44.266Z,2.78
2023-04-22T06:46:49.620Z,3.13
2023-04-22T06:49:55.465Z,2.85
2023-04-22T06:53:03.832Z,2.85
2023-04-22T06:56:09.508Z,2.85
2023-04-22T06:59:16.970Z,2.50
2023-04-22T07:02:22.137Z,2.65
2023-04-22T07:05:27.824Z,2.17
2023-04-22T07:08:35.462Z,2.30
2023-04-22T07:11:41.184Z,2.33
2023-04-22T07:14:47.306Z,2.17
2023-04-22T07:17:52.654Z,2.30
2023-04-22T07:20:57.692Z,2.10
2023-04-22T07:24:05.721Z,2.08
2023-04-22T07:27:10.741Z,1.67
2023-04-22T07:30:16.568Z,1.70
2023-04-22T07:33:21.890Z,1.70
2023-04-22T07:36:27.310Z,1.60
2023-04-22T07:39:34.970Z,1.90
2023-04-22T07:42:41.404Z,1.70
2023-04-22T07:45:49.586Z,1.90
2023-04-22T07:48:54.917Z,2.10
2023-04-22T07:52:02.962Z,1.65
2023-04-22T07:55:16.134Z,2.05
2023-04-22T07:58:22.667Z,1.80
2023-04-22T08:01:28.111Z,2.00
2023-04-22T08:04:36.128Z,2.22
2023-04-22T08:07:42.898Z,2.60
2023-04-22T08:10:51.861Z,2.40
2023-04-22T08:14:07.361Z,2.92
2023-04-22T08:17:16.160Z,2.85
2023-04-22T08:20:21.768Z,2.75
2023-04-22T08:23:32.694Z,2.45
2023-04-22T08:26:42.012Z,2.70
2023-04-22T08:29:49.104Z,2.70
2023-04-22T08:32:56.092Z,2.58
2023-04-22T08:36:01.250Z,2.80
2023-04-22T08:39:06.785Z,2.75
2023-04-22T08:42:15.839Z,2.60
2023-04-22T08:45:21.660Z,3.33
2023-04-22T08:48:26.848Z,2.75
2023-04-22T08:51:33.744Z,2.60
2023-04-22T08:54:41.658Z,2.60
2023-04-22T08:57:50.939Z,2.45
2023-04-22T09:00:56.212Z,2.80
2023-04-22T09:04:02.161Z,2.70
2023-04-22T09:07:07.261Z,2.80
2023-04-22T09:10:14.302Z,2.50
2023-04-22T09:13:24.060Z,3.40
2023-04-22T09:16:30.574Z,3.10
2023-04-22T09:19:35.571Z,2.72
2023-04-22T09:22:42.027Z,2.88
2023-04-22T09:25:48.096Z,3.10
2023-04-22T09:28:59.908Z,2.63
2023-04-22T09:32:12.123Z,2.75
2023-04-22T09:35:17.825Z,3.10
2023-04-22T09:38:23.571Z,3.63
2023-04-22T09:41:31.092Z,3.30
2023-04-22T09:44:38.930Z,3.35
2023-04-22T09:47:44.373Z,3.15
2023-04-22T09:50:51.349Z,2.92
2023-04-22T09:54:09.967Z,3.65
2023-04-22T09:57:21.617Z,3.47
2023-04-22T10:00:33.191Z,3.45
2023-04-22T10:03:38.353Z,3.75
2023-04-22T10:06:45.272Z,2.75
2023-04-22T10:09:51.047Z,3.03
2023-04-22T10:12:56.975Z,2.50
2023-04-22T10:16:07.193Z,2.88
2023-04-22T10:19:16.020Z,3.22
2023-04-22T10:22:21.436Z,3.47
2023-04-22T10:25:27.825Z,2.72
2023-04-22T10:28:32.904Z,2.92
2023-04-22T10:31:43.199Z,3.38
2023-04-22T10:34:49.915Z,2.70
2023-04-22T10:37:56.221Z,2.60
2023-04-22T10:41:04.552Z,2.78
2023-04-22T10:44:10.703Z,3.58
2023-04-22T10:47:27.224Z,2.75
2023-04-22T10:50:35.049Z,3.70
2023-04-22T10:53:42.988Z,2.42
2023-04-22T10:57:03.649Z,2.70
2023-04-22T11:00:22.484Z,2.38
2023-04-22T11:03:32.050Z,2.28
2023-04-22T11:06:37.281Z,2.40
2023-04-22T11:09:43.374Z,3.05
2023-04-22T11:12:52.758Z,2.45
2023-04-22T11:15:58.509Z,2.47
2023-04-22T11:19:06.431Z,2.35
2023-04-22T11:22:14.260Z,2.63
2023-04-22T11:25:19.253Z,2.47
2023-04-22T11:28:26.451Z,2.42
2023-04-22T11:31:31.467Z,2.47
2023-04-22T11:34:39.519Z,2.33
2023-04-22T11:37:48.494Z,2.20
2023-04-22T11:40:53.885Z,2.53
2023-04-22T11:44:03.247Z,2.40
2023-04-22T11:47:09.354Z,2.38
2023-04-22T11:50:17.355Z,2.10
2023-04-22T11:53:24.390Z,2.13
2023-04-22T11:56:29.688Z,2.25
2023-04-22T11:59:35.112Z,2.15
2023-04-22T12:02:40.227Z,2.10
2023-04-22T12:05:49.426Z,2.22
2023-04-22T12:08:56.042Z,2.25
2023-04-22T12:12:06.645Z,2.05
2023-04-22T12:15:16.872Z,2.00
2023-04-22T12:21:33.184Z,1.83
2023-04-22T12:24:38.742Z,1.67
2023-04-22T12:27:43.779Z,1.73
2023-04-22T12:30:49.209Z,2.15
2023-04-22T12:33:54.681Z,1.90
2023-04-22T12:37:03.128Z,1.70
2023-04-22T12:40:09.490Z,1.95
2023-04-22T12:43:14.882Z,1.60
2023-04-22T12:46:20.038Z,1.60
2023-04-22T12:49:25.512Z,1.45
2023-04-22T12:52:33.321Z,1.77
2023-04-22T12:55:39.043Z,1.98
2023-04-22T12:58:45.647Z,2.00
2023-04-22T13:01:51.075Z,1.60
2023-04-22T13:04:56.148Z,1.45
2023-04-22T13:08:07.714Z,1.58
2023-04-22T13:11:17.566Z,1.90
2023-04-22T13:14:27.143Z,1.30
2023-04-22T13:17:32.516Z,1.75
2023-04-22T13:20:38.066Z,1.65
2023-04-22T13:23:45.994Z,1.50
2023-04-22T13:26:51.479Z,1.40
2023-04-22T13:29:56.514Z,1.55
2023-04-22T13:33:02.179Z,1.35
2023-04-22T13:36:08.775Z,1.80
2023-04-22T13:39:18.013Z,1.67
2023-04-22T13:42:22.976Z,1.70
2023-04-22T13:45:31.133Z,1.60
2023-04-22T13:48:36.230Z,1.75
2023-04-22T13:51:41.592Z,1.40
2023-04-22T13:54:49.192Z,1.55
2023-04-22T13:57:55.933Z,1.50
2023-04-22T14:01:02.350Z,1.40
2023-04-22T14:04:08.144Z,1.58
2023-04-22T14:07:13.741Z,1.88
2023-04-22T14:10:23.126Z,1.50
2023-04-22T14:13:29.257Z,1.35
2023-04-22T14:16:35.172Z,1.65
2023-04-22T14:19:40.762Z,2.08
2023-04-22T14:22:46.688Z,3.40
2023-04-22T14:25:54.414Z,2.50
2023-04-22T14:28:59.786Z,2.55
2023-04-22T14:32:07.144Z,1.60
2023-04-22T14:35:12.938Z,1.60
2023-04-22T14:38:18.293Z,2.17
2023-04-22T14:41:27.315Z,1.70
2023-04-22T14:44:32.325Z,1.65
2023-04-22T14:47:37.786Z,1.65
2023-04-22T14:50:43.203Z,1.40
2023-04-22T14:53:48.544Z,1.65
2023-04-22T14:56:56.401Z,1.65
2023-04-22T15:00:03.322Z,1.60
2023-04-22T15:03:08.630Z,1.58
2023-04-22T15:06:14.266Z,1.40
2023-04-22T15:09:20.894Z,1.80
2023-04-22T15:12:29.312Z,1.70
2023-04-22T15:15:34.393Z,1.60
2023-04-22T15:18:40.053Z,1.50
2023-04-22T15:21:45.064Z,1.60
2023-04-22T15:24:50.471Z,1.40
2023-04-22T15:27:59.013Z,1.42
2023-04-22T15:31:04.647Z,1.50
2023-04-22T15:34:09.997Z,2.15
2023-04-22T15:37:15.362Z,1.70
2023-04-22T15:40:20.335Z,1.38
2023-04-22T15:43:28.278Z,1.30
2023-04-22T15:46:35.921Z,1.42
2023-04-22T15:49:41.669Z,1.42
2023-04-22T15:52:49.910Z,1.30
2023-04-22T15:55:55.248Z,1.45
2023-04-22T15:59:02.947Z,1.30
2023-04-22T16:02:08.958Z,1.33
2023-04-22T16:05:14.997Z,1.20
2023-04-22T16:08:20.470Z,1.52
2023-04-22T16:11:25.963Z,1.42
2023-04-22T16:14:34.353Z,1.48
2023-04-22T16:17:39.978Z,1.70
2023-04-22T16:20:45.431Z,1.23
2023-04-22T16:23:50.766Z,1.90
2023-04-22T16:26:56.734Z,1.92
2023-04-22T16:30:04.530Z,1.70
2023-04-22T16:33:10.573Z,1.50
2023-04-22T16:36:18.174Z,1.67
2023-04-22T16:39:24.022Z,1.90
2023-04-22T16:42:30.666Z,2.03
2023-04-22T16:45:38.608Z,1.60
2023-04-22T16:48:43.807Z,1.60
2023-04-22T16:51:49.527Z,1.50
2023-04-22T16:54:54.553Z,2.00
2023-04-22T16:58:02.865Z,1.40
2023-04-22T17:01:10.536Z,1.33
2023-04-22T17:04:20.756Z,1.52
2023-04-22T17:07:25.779Z,1.58
2023-04-22T17:10:32.988Z,1.77
2023-04-22T17:13:38.312Z,1.33
2023-04-22T17:16:46.333Z,1.60
2023-04-22T17:19:51.867Z,1.90
2023-04-22T17:22:58.614Z,1.60
2023-04-22T17:26:03.636Z,1.67
2023-04-22T17:29:09.084Z,1.90
2023-04-22T17:32:16.748Z,2.20
2023-04-22T17:35:22.201Z,2.22
2023-04-22T17:38:27.210Z,2.30
2023-04-22T17:41:32.536Z,2.70
2023-04-22T17:44:37.826Z,1.92
2023-04-22T17:47:48.733Z,2.00
2023-04-22T17:50:55.071Z,2.13
2023-04-22T17:54:01.361Z,2.20
2023-04-22T17:57:06.696Z,2.70
2023-04-22T18:00:14.715Z,2.00
2023-04-22T18:03:23.232Z,2.40
2023-04-22T18:06:31.177Z,3.13
2023-04-22T18:09:36.148Z,2.78
2023-04-22T18:12:41.637Z,2.78
2023-04-22T18:15:48.855Z,2.53
2023-04-22T18:18:57.163Z,2.33
2023-04-22T18:22:02.153Z,2.90
2023-04-22T18:25:09.041Z,2.72
2023-04-22T18:28:14.030Z,3.20
2023-04-22T18:31:21.556Z,2.63
2023-04-22T18:34:32.865Z,2.95
2023-04-22T18:37:38.249Z,2.72
2023-04-22T18:40:43.384Z,2.67
2023-04-22T18:43:49.764Z,2.72
2023-04-22T18:47:05.849Z,3.10
2023-04-22T18:50:16.289Z,3.30
2023-04-22T18:53:21.294Z,2.90
2023-04-22T18:56:27.014Z,2.90
2023-04-22T18:59:31.968Z,3.22
2023-04-22T19:02:39.933Z,3.38
2023-04-22T19:05:49.396Z,3.50
2023-04-22T19:08:55.222Z,3.30
2023-04-22T19:12:00.247Z,3.05
2023-04-22T19:15:06.435Z,3.75
2023-04-22T19:18:13.518Z,3.03
2023-04-22T19:21:23.888Z,3.30
2023-04-22T19:24:33.664Z,3.58
2023-04-22T19:27:40.739Z,3.20
2023-04-22T19:30:46.505Z,4.25
2023-04-22T19:33:51.939Z,3.40
2023-04-22T19:36:59.624Z,3.10
2023-04-22T19:40:09.849Z,7.63
2023-04-22T19:43:17.213Z,4.00
2023-04-22T19:46:27.116Z,3.63
2023-04-22T19:53:08.653Z,3.45
2023-04-22T19:56:18.157Z,3.20
2023-04-22T19:59:31.321Z,3.78
2023-04-22T20:02:51.238Z,4.22
2023-04-22T20:06:40.010Z,3.10
2023-04-22T20:09:57.369Z,3.10
2023-04-22T20:16:52.449Z,2.92
2023-04-22T20:20:07.033Z,2.97
2023-04-22T20:23:36.194Z,3.20
2023-04-22T20:26:48.169Z,3.10
2023-04-22T20:29:57.063Z,3.05
2023-04-22T20:33:07.038Z,3.10
2023-04-22T20:36:33.408Z,3.25
2023-04-22T20:39:53.763Z,3.47
2023-04-22T20:43:28.588Z,3.47
2023-04-22T20:46:45.471Z,3.33
2023-04-22T20:50:20.969Z,3.35
2023-04-22T20:54:01.109Z,4.25
2023-04-22T20:57:12.341Z,3.75
2023-04-22T21:00:55.480Z,3.70
2023-04-22T21:04:14.313Z,4.18
2023-04-22T21:07:20.626Z,4.22
2023-04-22T21:10:26.555Z,3.67
2023-04-22T21:13:33.965Z,4.10
2023-04-22T21:20:02.808Z,3.90
2023-04-22T21:23:08.719Z,3.92
2023-04-22T21:26:13.916Z,4.38
2023-04-22T21:29:19.590Z,4.45
2023-04-22T21:32:29.671Z,4.15
2023-04-22T21:35:35.115Z,4.55
2023-04-22T21:38:40.117Z,4.90
2023-04-22T21:41:45.775Z,3.95
2023-04-22T21:44:51.185Z,4.18
2023-04-22T21:48:01.432Z,5.13
2023-04-22T21:51:06.685Z,4.38
2023-04-22T21:54:19.746Z,4.80
2023-04-22T21:57:24.810Z,4.40
2023-04-22T22:00:32.022Z,4.63
2023-04-22T22:03:40.146Z,4.72
2023-04-22T22:06:47.151Z,5.20
2023-04-22T22:09:53.365Z,5.53
2023-04-22T22:12:58.796Z,5.10
2023-04-22T22:16:06.178Z,4.78
2023-04-22T22:19:14.724Z,5.20
2023-04-22T22:22:19.977Z,4.93
2023-04-22T22:25:25.425Z,5.18
2023-04-22T22:28:34.403Z,5.00
2023-04-22T22:31:40.086Z,5.28
2023-04-22T22:34:47.765Z,4.80
2023-04-22T22:37:53.083Z,5.03
2023-04-22T22:40:58.034Z,5.35
2023-04-22T22:44:03.711Z,5.15
2023-04-22T22:47:11.561Z,4.68
2023-04-22T22:50:21.673Z,5.43
2023-04-22T22:53:27.116Z,5.10
2023-04-22T22:56:35.462Z,5.50
2023-04-22T22:59:41.249Z,5.45
2023-04-22T23:02:46.755Z,5.30
2023-04-22T23:05:54.857Z,5.53
2023-04-22T23:09:00.243Z,5.35
2023-04-22T23:12:05.818Z,5.25
2023-04-22T23:15:11.360Z,5.57
2023-04-22T23:18:19.413Z,5.57
2023-04-22T23:21:33.247Z,5.20
2023-04-22T23:24:39.442Z,5.80
2023-04-22T23:27:45.729Z,4.93
2023-04-22T23:30:52.087Z,5.07
2023-04-22T23:33:58.546Z,5.07
2023-04-22T23:37:08.671Z,5.45
2023-04-22T23:40:14.673Z,5.95
2023-04-22T23:43:19.680Z,5.22
2023-04-22T23:46:25.118Z,6.28
2023-04-22T23:49:30.149Z,5.65
2023-04-22T23:52:41.470Z,5.32
2023-04-22T23:55:48.916Z,5.93
2023-04-22T23:58:56.451Z,6.00
